Terminal Aerodrome Forecast
Issued by NWS

Home | Current Version | Previous Version | Text Only | Print | Product List | Glossary On
Versions: 1 2 3 4 5 6 7 8 9 10 11 12 13 14 15
000
FTUS45 KABQ 300529
TAFROW
TAF
KROW 300529Z 3006/3106 04010KT P6SM -TSRA SCT050CB BKN080
     FM300800 01013KT P6SM -SHRA BKN030 OVC070
      TEMPO 3010/3014 5SM RA BR BKN020
     FM301500 04010KT P6SM VCSH BKN030 OVC050
     FM301800 10007KT P6SM SCT035 BKN060
     FM302200 16008KT P6SM SCT060=

USA.gov is the U.S. government's official web portal to all federal, state and local government web resources and services.